Historyczne dane pomiarowe

Dodano dane terminowe – wersja testowa.

Dane z okresu 1951-2019

Wersja bazy: 1.34 [2019-03-16, lista zmian], aktualizacja planowana na 2019-04-15

Dane meteo z obszaru Polski uzyskane na podstawie danych udostępnionych przez Instytut Meteorologii i Gospodarki Wodnej – Państwowy Instytut Badawczy.

 

Wybierz Datę:    

       

TemperaturaWilgotnośćWiatrCiśnienieOpadyŚniegCzas trwania zjawisk
 Stacja t tx tn tng RH VA  wxwx mslp ppp RRR   cm mm wxwxwxwxwxwxwx
1994-08-14 13.1 18.5 10.9- 90.8- 8.0 9.0---- 5.2------------
1994-08-13 16.7 22.7 12.9- 95.5- 6.7 2.3---- 1.8------------
1994-08-12 17.3 23.7 9.9- 83.8- 3.0 1.7---- 0.0------------
1994-08-11 18.3 25.3 7.9- 81.0- 1.7 2.7---- 0.0------------
1994-08-10 20.2 26.4 12.9- 86.5- 2.0 1.7---- 0.0------------
1994-08-09 17.2 21.6 10.4- 97.8- 6.3 1.7---- 2.5------------
1994-08-08 18.6 23.9 14.3- 94.5- 5.3 2.0---- 0.0------------
1994-08-07 22.7 28.1 16.4- 85.0- 1.7 1.7---- 0.1------------
1994-08-06 24.8 33.3 14.6- 74.5- 2.0 2.3---- 0.0------------
1994-08-05 24.3 32.1 14.8- 83.3- 1.3 2.0---- 0.0------------
1994-08-04 23.2 30.0 16.8- 83.5- 1.3 1.0---- 0.0------------
1994-08-03 22.2 28.5 17.9- 88.5- 4.7 1.0---- 1.0------------
1994-08-02 26.2 34.1 14.6- 83.0- 1.0 1.0---- 19.8------------
1994-08-01 26.0 35.1 15.8- 68.5- 3.0 3.0---- 0.0------------
1994-07-31 26.7 35.6 13.8- 70.8- 0.0 1.0---- 0.0------------
1994-07-30 26.5 34.9 13.8- 66.5- 0.0 1.0---- 0.0------------
1994-07-29 25.6 34.1 12.4- 71.3- 0.0 1.3---- 0.0------------
1994-07-28 24.6 32.8 11.1- 68.0- 0.0 3.0---- 0.0------------
1994-07-27 24.9 33.3 12.1- 74.3- 0.0 1.0---- 0.0------------
1994-07-26 24.3 31.5 14.3- 72.5- 0.0 3.0---- 0.0------------
1994-07-25 23.2 31.0 13.1- 75.0- 0.3 1.0---- 0.0------------
1994-07-24 21.8 29.5 10.9- 72.8- 0.0 1.0---- 0.0------------
1994-07-23 20.7 28.1 9.4- 76.5- 0.3 1.0---- 0.0------------
1994-07-22 18.9 26.1 10.5- 75.0- 0.0 1.3---- 0.0------------
1994-07-21 19.0 28.3 6.9- 66.5- 0.3 2.0---- 0.0------------
1994-07-20 17.7 24.2 9.7- 72.5- 0.3 2.0---- 0.0------------
1994-07-19 17.0 22.1 9.7- 71.8- 3.0 7.0---- 0.0------------
1994-07-18 18.6 23.7 12.4- 74.8- 2.7 3.3---- 0.0------------
1994-07-17 20.6 25.1 14.3- 86.0- 3.0 1.0---- 0.0------------
1994-07-16 22.4 31.0 10.9- 75.8- 1.3 2.3---- 0.0------------
1994-07-15 23.5 30.5 13.3- 70.8- 0.0 2.3---- 0.0------------
1994-07-14 24.6 30.2 16.4- 74.0- 0.0 1.3---- 0.0------------
1994-07-13 24.1 30.0 14.0- 73.3- 0.0 1.0---- 0.0------------
1994-07-12 23.4 29.6 14.0- 75.5- 0.3 1.0---- 0.0------------
1994-07-11 22.1 27.6 13.8- 74.8- 0.3 2.0---- 0.0------------
1994-07-10 19.2 26.1 10.4- 80.3- 2.3 2.3---- 1.7------------
1994-07-09 13.7 18.1 7.9- 88.8- 4.7 5.3---- 1.1------------
1994-07-08 14.3 21.9 9.4- 93.0- 6.0 2.3---- 6.6------------
1994-07-07 18.0 24.6 9.1- 72.3- 0.3 1.7---- 0.0------------
1994-07-06 17.5 24.7 6.9- 72.8- 0.7 1.0---- 0.0------------
1994-07-05 17.4 23.3 8.9- 70.8- 0.3 1.3---- 0.0------------
1994-07-04 18.0 24.1 7.3- 77.0- 0.0 1.7---- 0.0------------
1994-07-03 15.9 22.6 6.6- 73.0- 0.0 2.3---- 0.0------------
1994-07-02 15.8 22.1 8.4- 71.0- 0.0 3.0---- 0.0------------
1994-07-01 15.8 21.6 8.9- 73.5- 2.0 2.7---- 0.0------------
1994-06-30 18.9 25.5 14.0- 80.3- 2.7 3.0---- 0.4------------
1994-06-29 21.5 28.7 10.9- 75.5- 0.7 2.3---- 0.0------------
1994-06-28 19.5 26.6 9.9- 75.5- 1.0 2.0---- 0.0------------
1994-06-27 21.3 27.1 13.8- 75.5- 2.0 3.0---- 0.0------------
1994-06-26 20.3 28.6 7.9- 77.5- 0.0 2.3---- 0.0------------
1994-06-25 15.0 22.6 5.0- 77.3- 0.7 1.7---- 0.0------------
1994-06-24 12.6 17.3 9.9- 65.8- 2.7 8.3---- 0.0------------
1994-06-23 13.7 19.1 10.4- 67.3- 3.7 14.0---- 0.5------------
1994-06-22 17.0 23.1 10.3- 77.8- 3.7 5.0---- 0.0------------
1994-06-21 14.6 21.6 5.6- 74.3- 1.3 1.0---- 0.0------------
1994-06-20 14.3 16.8 11.4- 80.8- 2.7 6.0---- 0.0------------
1994-06-19 12.5 15.2 11.3- 99.3- 8.0 2.3---- 5.1------------
1994-06-18 11.5 16.5 2.5- 84.8- 2.7 1.7---- 2.7------------
1994-06-17 9.4 13.5 5.0- 90.5- 3.0 2.3---- 2.7------------
1994-06-16 10.0 15.5 7.4- 92.5- 5.7 5.3---- 2.3------------
289.1 ms

 

Źródłem pochodzenia danych jest Instytut Meteorologii i Gospodarki Wodnej – Państwowy Instytut Badawczy. Dane Instytutu Meteorologii i Gospodarki Wodnej – Państwowego Instytutu Badawczego zostały przetworzone.

Dane źródłowe można odnaleźć na stronie https://dane.imgw.pl